Time;durP1;ratioP1;P1;durP2;ratioP2;P2;SDS_P1;SDS_P2;PMS_P1;PMS_P2;Temp;Humidity;BMP_temperature;BMP_pressure;BME280_temperature;BME280_humidity;BME280_pressure;Samples;Min_cycle;Max_cycle;Signal;HPM_P1;HPM_P2
2022/07/25 00:01:25;;;;;;;1.95;1.50;;;;;;;;;;4954380;28;20051;-89
2022/07/25 00:03:57;;;;;;;4.93;1.90;;;;;;;;;;4953531;28;20134;-90
2022/07/25 00:06:26;;;;;;;3.45;1.67;;;;;;;;;;4952818;28;20055;-89
2022/07/25 00:08:54;;;;;;;2.50;1.63;;;;;;;;;;4953387;28;20101;-89
2022/07/25 00:11:23;;;;;;;6.72;1.60;;;;;;;;;;4952569;28;20102;-89
2022/07/25 00:13:51;;;;;;;5.07;1.58;;;;;;;;;;4954896;28;20078;-89
2022/07/25 00:16:20;;;;;;;2.92;1.58;;;;;;;;;;4951539;28;20047;-88
2022/07/25 00:18:50;;;;;;;3.28;2.17;;;;;;;;;;4950291;28;20484;-87
2022/07/25 00:21:18;;;;;;;2.55;1.70;;;;;;;;;;4956945;28;20055;-89
2022/07/25 00:23:47;;;;;;;1.73;1.38;;;;;;;;;;4954422;28;20077;-88
2022/07/25 00:26:16;;;;;;;1.92;1.15;;;;;;;;;;4951765;28;20246;-87
2022/07/25 00:28:45;;;;;;;1.73;1.35;;;;;;;;;;4954102;28;20059;-88
2022/07/25 00:31:13;;;;;;;2.28;1.42;;;;;;;;;;4954320;28;20130;-89
2022/07/25 00:33:42;;;;;;;2.28;1.55;;;;;;;;;;4953198;28;20059;-89
2022/07/25 00:36:12;;;;;;;2.60;1.73;;;;;;;;;;4953763;28;20507;-88
2022/07/25 00:38:40;;;;;;;2.67;1.65;;;;;;;;;;4954753;28;20063;-88
2022/07/25 00:41:12;;;;;;;3.40;1.95;;;;;;;;;;4952348;28;20194;-88
2022/07/25 00:43:43;;;;;;;3.20;1.73;;;;;;;;;;4950663;28;20039;-89
2022/07/25 00:46:13;;;;;;;1.30;1.15;;;;;;;;;;4953389;28;20083;-89
2022/07/25 00:48:46;;;;;;;2.65;1.63;;;;;;;;;;4956748;28;20149;-87
2022/07/25 00:51:16;;;;;;;1.95;1.38;;;;;;;;;;4958914;28;20043;-88
2022/07/25 00:53:46;;;;;;;2.78;1.50;;;;;;;;;;4952990;28;20118;-88
2022/07/25 00:56:14;;;;;;;3.53;1.77;;;;;;;;;;4946706;28;20102;-86
2022/07/25 00:58:44;;;;;;;2.60;1.52;;;;;;;;;;4956339;28;20085;-88
2022/07/25 01:01:13;;;;;;;2.85;1.55;;;;;;;;;;4950942;28;20106;-88
2022/07/25 01:03:41;;;;;;;2.53;1.70;;;;;;;;;;4948751;28;20090;-87
2022/07/25 01:06:10;;;;;;;2.67;1.75;;;;;;;;;;4944843;28;20048;-88
2022/07/25 01:08:40;;;;;;;2.88;1.75;;;;;;;;;;4945137;28;20514;-89
2022/07/25 01:11:12;;;;;;;2.65;1.45;;;;;;;;;;4951468;29;20047;-88
2022/07/25 01:13:41;;;;;;;3.08;1.45;;;;;;;;;;4946948;29;20154;-89
2022/07/25 01:16:09;;;;;;;3.28;1.35;;;;;;;;;;4948928;28;20311;-88
2022/07/25 01:18:38;;;;;;;2.58;1.33;;;;;;;;;;4947236;28;20051;-87
2022/07/25 01:21:14;;;;;;;1.73;1.40;;;;;;;;;;4950921;28;20423;-88
2022/07/25 01:23:42;;;;;;;1.70;1.35;;;;;;;;;;4945595;29;20106;-89
2022/07/25 01:26:14;;;;;;;2.22;1.48;;;;;;;;;;4952474;29;20438;-88
2022/07/25 01:28:42;;;;;;;3.65;1.75;;;;;;;;;;4951989;29;20114;-89
2022/07/25 01:31:11;;;;;;;2.63;1.38;;;;;;;;;;4952485;28;20102;-88
2022/07/25 01:33:39;;;;;;;3.55;1.50;;;;;;;;;;4951716;29;20044;-88
2022/07/25 01:36:15;;;;;;;1.67;1.48;;;;;;;;;;4948503;28;20134;-88
2022/07/25 01:38:43;;;;;;;2.72;1.33;;;;;;;;;;4948550;28;20122;-87
2022/07/25 01:41:12;;;;;;;3.05;1.50;;;;;;;;;;4949230;28;20099;-88
2022/07/25 01:43:49;;;;;;;3.35;2.08;;;;;;;;;;4949096;28;20047;-90
2022/07/25 01:46:18;;;;;;;5.20;1.85;;;;;;;;;;4950743;28;20071;-87
2022/07/25 01:48:46;;;;;;;2.63;1.77;;;;;;;;;;4947589;28;20452;-88
2022/07/25 01:51:16;;;;;;;2.50;1.33;;;;;;;;;;4951864;28;20057;-89
2022/07/25 01:53:47;;;;;;;1.38;1.27;;;;;;;;;;4951815;28;20043;-87
2022/07/25 01:56:16;;;;;;;2.88;1.52;;;;;;;;;;4948661;28;20078;-89
2022/07/25 01:58:48;;;;;;;2.30;1.75;;;;;;;;;;4911780;28;1142829;-87
2022/07/25 02:01:16;;;;;;;3.03;1.33;;;;;;;;;;4953388;29;20047;-87
2022/07/25 02:03:48;;;;;;;3.22;1.65;;;;;;;;;;4952573;28;20113;-88
2022/07/25 02:06:19;;;;;;;2.83;1.30;;;;;;;;;;4951675;28;20145;-89
2022/07/25 02:08:48;;;;;;;2.50;2.17;;;;;;;;;;4955756;28;20179;-88
2022/07/25 02:11:17;;;;;;;2.40;1.30;;;;;;;;;;4950246;28;20043;-90
2022/07/25 02:13:45;;;;;;;3.13;1.13;;;;;;;;;;4953957;28;20539;-87
2022/07/25 02:16:14;;;;;;;2.95;1.95;;;;;;;;;;4950194;28;20082;-88
2022/07/25 02:18:42;;;;;;;3.42;1.45;;;;;;;;;;4953937;28;20055;-90
2022/07/25 02:21:14;;;;;;;2.55;1.40;;;;;;;;;;4951736;28;20051;-90
2022/07/25 02:23:44;;;;;;;3.15;1.88;;;;;;;;;;4953945;28;20047;-88
2022/07/25 02:26:13;;;;;;;1.90;1.13;;;;;;;;;;4951024;28;20086;-88
2022/07/25 02:28:42;;;;;;;1.60;1.33;;;;;;;;;;4950477;28;20094;-88
2022/07/25 02:31:13;;;;;;;2.45;1.35;;;;;;;;;;4948829;28;20481;-89
2022/07/25 02:33:42;;;;;;;1.85;1.38;;;;;;;;;;4954426;28;20054;-88
2022/07/25 02:36:13;;;;;;;3.58;2.08;;;;;;;;;;4945997;28;20106;-88
2022/07/25 02:38:42;;;;;;;1.52;1.20;;;;;;;;;;4954498;28;20055;-87
2022/07/25 02:41:14;;;;;;;2.30;1.60;;;;;;;;;;4951534;28;20059;-90
2022/07/25 02:43:43;;;;;;;1.63;1.33;;;;;;;;;;4951216;28;20055;-88
2022/07/25 02:46:11;;;;;;;1.92;1.27;;;;;;;;;;4950877;28;20098;-91
2022/07/25 02:48:40;;;;;;;2.17;1.33;;;;;;;;;;4948933;28;20043;-87
2022/07/25 02:51:12;;;;;;;3.17;1.65;;;;;;;;;;4945770;28;20480;-86
2022/07/25 02:53:40;;;;;;;3.05;1.70;;;;;;;;;;4953125;28;20043;-88
2022/07/25 02:56:27;;;;;;;2.38;1.73;;;;;;;;;;4949789;28;20063;-89
2022/07/25 02:58:57;;;;;;;2.95;1.58;;;;;;;;;;4946084;28;20059;-87
2022/07/25 03:01:26;;;;;;;2.25;1.63;;;;;;;;;;4949258;28;20097;-89
2022/07/25 03:03:55;;;;;;;2.03;1.42;;;;;;;;;;4948820;28;20066;-86
2022/07/25 03:06:23;;;;;;;1.52;1.00;;;;;;;;;;4948617;28;20066;-88
2022/07/25 03:08:52;;;;;;;2.90;1.70;;;;;;;;;;4950608;28;20051;-88
2022/07/25 03:11:21;;;;;;;1.98;1.35;;;;;;;;;;4952543;28;20137;-89
2022/07/25 03:13:51;;;;;;;3.47;1.38;;;;;;;;;;4952353;28;20078;-88
2022/07/25 03:16:20;;;;;;;2.55;1.58;;;;;;;;;;4950415;28;20043;-87
2022/07/25 03:18:48;;;;;;;2.15;1.52;;;;;;;;;;4950601;28;20492;-89
2022/07/25 03:21:17;;;;;;;4.65;1.50;;;;;;;;;;4950163;28;20126;-90
2022/07/25 03:23:45;;;;;;;2.28;1.60;;;;;;;;;;4951299;28;20083;-87
2022/07/25 03:26:20;;;;;;;1.63;1.20;;;;;;;;;;4947809;29;20052;-89
2022/07/25 03:28:48;;;;;;;1.73;1.30;;;;;;;;;;4948273;28;20161;-88
2022/07/25 03:31:18;;;;;;;2.15;1.73;;;;;;;;;;4949300;28;20047;-89
2022/07/25 03:33:46;;;;;;;2.20;1.27;;;;;;;;;;4953605;28;20070;-90
2022/07/25 03:36:15;;;;;;;3.58;1.92;;;;;;;;;;4950410;28;20148;-88
2022/07/25 03:38:43;;;;;;;3.63;1.67;;;;;;;;;;4948498;28;20106;-88
2022/07/25 03:41:12;;;;;;;3.15;1.70;;;;;;;;;;4947662;28;20087;-89
2022/07/25 03:43:41;;;;;;;2.13;1.35;;;;;;;;;;4943704;28;20482;-89
2022/07/25 03:46:12;;;;;;;2.10;1.10;;;;;;;;;;4951368;28;20554;-88
2022/07/25 03:48:42;;;;;;;1.50;1.25;;;;;;;;;;4944033;28;20403;-89
2022/07/25 03:51:13;;;;;;;0.90;0.73;;;;;;;;;;4951131;28;20055;-88
2022/07/25 03:56:28;;;;;;;2.42;1.23;;;;;;;;;;4948507;28;20107;-90
2022/07/25 03:58:56;;;;;;;4.43;1.75;;;;;;;;;;4952795;28;20134;-90
2022/07/25 04:01:25;;;;;;;3.05;1.35;;;;;;;;;;4946484;29;20803;-90
2022/07/25 04:03:55;;;;;;;3.20;1.25;;;;;;;;;;4950930;28;20055;-89
2022/07/25 04:06:24;;;;;;;4.32;1.45;;;;;;;;;;4949420;28;20376;-88
2022/07/25 04:08:52;;;;;;;3.50;2.28;;;;;;;;;;4950465;28;20123;-88
2022/07/25 04:11:21;;;;;;;1.95;1.40;;;;;;;;;;4955657;28;20126;-92
2022/07/25 04:13:49;;;;;;;7.25;2.22;;;;;;;;;;4952518;28;20074;-89
2022/07/25 04:16:19;;;;;;;1.92;1.55;;;;;;;;;;4951247;28;20644;-88
2022/07/25 04:18:50;;;;;;;2.58;1.77;;;;;;;;;;4952170;28;20059;-88
2022/07/25 04:21:20;;;;;;;2.92;1.60;;;;;;;;;;4951628;28;20066;-87
2022/07/25 04:23:48;;;;;;;3.05;2.30;;;;;;;;;;4951344;28;20141;-89
2022/07/25 04:26:17;;;;;;;2.08;1.70;;;;;;;;;;4952705;28;20176;-88
2022/07/25 04:28:45;;;;;;;1.35;1.10;;;;;;;;;;4955534;28;20059;-89
2022/07/25 04:31:14;;;;;;;2.50;1.38;;;;;;;;;;4949447;28;20054;-89
2022/07/25 04:33:43;;;;;;;3.35;1.70;;;;;;;;;;4949514;28;20076;-88
2022/07/25 04:36:11;;;;;;;2.58;1.60;;;;;;;;;;4950759;28;20106;-89
2022/07/25 04:38:41;;;;;;;2.88;1.27;;;;;;;;;;4950433;28;20106;-88
2022/07/25 04:41:12;;;;;;;2.63;1.85;;;;;;;;;;4952512;28;20114;-88
2022/07/25 04:43:41;;;;;;;1.58;1.33;;;;;;;;;;4949611;28;20090;-89
2022/07/25 04:46:18;;;;;;;2.30;1.77;;;;;;;;;;4948528;28;20138;-91
2022/07/25 04:48:47;;;;;;;1.50;1.30;;;;;;;;;;4952886;29;20503;-90
2022/07/25 04:51:15;;;;;;;2.70;1.67;;;;;;;;;;4952565;28;20110;-89
2022/07/25 04:53:45;;;;;;;2.55;1.45;;;;;;;;;;4951278;29;20094;-91
2022/07/25 04:56:14;;;;;;;2.33;1.20;;;;;;;;;;4954312;28;20138;-91
2022/07/25 04:58:43;;;;;;;3.47;1.73;;;;;;;;;;4952643;28;20049;-91
2022/07/25 05:01:11;;;;;;;2.70;1.20;;;;;;;;;;4951976;29;20085;-90
2022/07/25 05:03:40;;;;;;;1.58;1.25;;;;;;;;;;4951934;28;20051;-91
2022/07/25 05:06:17;;;;;;;1.42;1.30;;;;;;;;;;4951211;28;20768;-90
2022/07/25 05:08:47;;;;;;;1.35;1.25;;;;;;;;;;4952104;28;20075;-93
2022/07/25 05:11:16;;;;;;;1.83;1.45;;;;;;;;;;4953538;28;20567;-90
2022/07/25 05:13:44;;;;;;;2.50;1.35;;;;;;;;;;4948654;28;20074;-91
2022/07/25 05:16:13;;;;;;;2.75;1.90;;;;;;;;;;4948262;29;20456;-89
2022/07/25 05:18:41;;;;;;;1.65;1.30;;;;;;;;;;4949315;28;20093;-90
2022/07/25 05:21:13;;;;;;;3.53;2.28;;;;;;;;;;4942251;28;20047;-89
2022/07/25 05:23:41;;;;;;;2.25;1.10;;;;;;;;;;4953468;28;20058;-90
2022/07/25 05:26:14;;;;;;;3.45;1.17;;;;;;;;;;4952590;29;20134;-91
2022/07/25 05:28:42;;;;;;;3.85;2.17;;;;;;;;;;4952514;29;20126;-90
2022/07/25 05:31:14;;;;;;;2.55;1.95;;;;;;;;;;4953821;29;20079;-90
2022/07/25 05:33:42;;;;;;;2.75;1.67;;;;;;;;;;4952053;28;20047;-90
2022/07/25 05:36:13;;;;;;;3.22;1.50;;;;;;;;;;4948033;28;20082;-90
2022/07/25 05:38:42;;;;;;;1.90;1.65;;;;;;;;;;4948209;29;20052;-90
2022/07/25 05:41:15;;;;;;;1.85;1.15;;;;;;;;;;4948770;28;20542;-90
2022/07/25 05:43:45;;;;;;;3.47;1.88;;;;;;;;;;4950208;28;20581;-90
2022/07/25 05:46:14;;;;;;;2.60;1.40;;;;;;;;;;4949533;28;20503;-90
2022/07/25 05:48:42;;;;;;;2.90;1.58;;;;;;;;;;4946525;28;20056;-90
2022/07/25 05:51:15;;;;;;;1.60;1.45;;;;;;;;;;4946669;28;20066;-88
2022/07/25 05:53:43;;;;;;;1.88;1.50;;;;;;;;;;4950775;28;20079;-89
2022/07/25 05:56:16;;;;;;;2.42;1.25;;;;;;;;;;4943669;28;20047;-88
2022/07/25 05:58:44;;;;;;;3.90;2.38;;;;;;;;;;4949313;28;20550;-89
2022/07/25 06:01:13;;;;;;;3.90;2.17;;;;;;;;;;4938774;28;20416;-89
2022/07/25 06:03:42;;;;;;;2.17;1.98;;;;;;;;;;4952220;29;20145;-87
2022/07/25 06:06:17;;;;;;;2.38;1.67;;;;;;;;;;4948813;29;20043;-89
2022/07/25 06:08:45;;;;;;;2.13;1.60;;;;;;;;;;4950478;28;20106;-90
2022/07/25 06:11:16;;;;;;;3.13;1.60;;;;;;;;;;4943806;28;20488;-89
2022/07/25 06:13:45;;;;;;;5.40;1.77;;;;;;;;;;4949523;28;20075;-88
2022/07/25 06:16:13;;;;;;;4.25;1.40;;;;;;;;;;4948773;28;20493;-89
2022/07/25 06:18:42;;;;;;;3.05;1.60;;;;;;;;;;4941656;29;20134;-89
2022/07/25 06:21:16;;;;;;;4.53;2.58;;;;;;;;;;4952681;29;20091;-89
2022/07/25 06:23:45;;;;;;;2.08;1.27;;;;;;;;;;4946635;29;20055;-90
2022/07/25 06:26:17;;;;;;;3.38;2.25;;;;;;;;;;4952828;28;20047;-89
2022/07/25 06:28:47;;;;;;;3.40;2.60;;;;;;;;;;4950734;28;20051;-89
2022/07/25 06:31:15;;;;;;;2.75;1.65;;;;;;;;;;4952478;28;20051;-91
2022/07/25 06:33:43;;;;;;;2.58;1.30;;;;;;;;;;4953159;29;20102;-90
2022/07/25 06:36:18;;;;;;;3.92;2.17;;;;;;;;;;4941391;29;20079;-89
2022/07/25 06:38:46;;;;;;;3.10;1.92;;;;;;;;;;4946970;29;20550;-91
2022/07/25 06:41:16;;;;;;;4.38;2.35;;;;;;;;;;4950687;29;20047;-91
2022/07/25 06:43:46;;;;;;;3.15;1.70;;;;;;;;;;4953675;28;20106;-88
2022/07/25 06:46:14;;;;;;;3.70;2.05;;;;;;;;;;4952425;29;20110;-88
2022/07/25 06:48:43;;;;;;;4.80;2.30;;;;;;;;;;4949657;29;20071;-89
2022/07/25 06:51:17;;;;;;;3.25;1.65;;;;;;;;;;4948305;28;20519;-89
2022/07/25 06:53:46;;;;;;;5.50;2.00;;;;;;;;;;4955067;28;20496;-88
2022/07/25 06:56:14;;;;;;;3.92;2.15;;;;;;;;;;4954682;28;20056;-90
2022/07/25 06:58:44;;;;;;;2.28;1.42;;;;;;;;;;5337572;23;20128;-90
2022/07/25 07:01:14;;;;;;;5.38;1.73;;;;;;;;;;4971458;28;20377;-90
2022/07/25 07:03:43;;;;;;;4.30;2.08;;;;;;;;;;4965976;28;20102;-90
2022/07/25 07:06:15;;;;;;;4.50;2.20;;;;;;;;;;4964346;28;20086;-89
2022/07/25 07:08:45;;;;;;;5.05;2.58;;;;;;;;;;4970941;28;20491;-91
2022/07/25 07:11:17;;;;;;;3.00;1.67;;;;;;;;;;4959711;28;20411;-89
2022/07/25 07:13:46;;;;;;;3.30;1.88;;;;;;;;;;4964378;28;20051;-90
2022/07/25 07:16:16;;;;;;;5.63;2.45;;;;;;;;;;4964157;28;20089;-89
2022/07/25 07:18:45;;;;;;;5.20;2.60;;;;;;;;;;4960630;28;20530;-90
2022/07/25 07:21:16;;;;;;;4.28;2.83;;;;;;;;;;4968561;28;20078;-89
2022/07/25 07:23:48;;;;;;;4.68;2.38;;;;;;;;;;4967435;28;20431;-91
2022/07/25 07:26:21;;;;;;;5.07;2.05;;;;;;;;;;4970158;28;20105;-90
2022/07/25 07:28:53;;;;;;;4.10;2.08;;;;;;;;;;4967447;28;20717;-90
2022/07/25 07:31:23;;;;;;;3.30;2.25;;;;;;;;;;4966147;28;20051;-91
2022/07/25 07:33:52;;;;;;;2.95;1.80;;;;;;;;;;4968610;28;20055;-89
2022/07/25 07:36:20;;;;;;;5.32;2.55;;;;;;;;;;4971675;28;20515;-92
2022/07/25 07:38:49;;;;;;;2.42;1.35;;;;;;;;;;4964009;28;20042;-91
2022/07/25 07:41:18;;;;;;;4.22;2.42;;;;;;;;;;4970919;28;20288;-91
2022/07/25 07:43:47;;;;;;;2.88;1.75;;;;;;;;;;4968983;28;20676;-90
2022/07/25 07:46:16;;;;;;;2.97;2.03;;;;;;;;;;4977334;28;20050;-91
2022/07/25 07:48:46;;;;;;;3.67;2.17;;;;;;;;;;4979226;28;20058;-90
2022/07/25 07:51:18;;;;;;;5.18;2.47;;;;;;;;;;4972479;28;20043;-89
2022/07/25 07:56:34;;;;;;;4.63;3.00;;;;;;;;;;4982671;28;20126;-91
2022/07/25 07:59:03;;;;;;;4.20;2.33;;;;;;;;;;4952578;28;20400;-89
2022/07/25 08:01:32;;;;;;;5.50;2.70;;;;;;;;;;4954988;28;20501;-91
2022/07/25 08:04:03;;;;;;;3.88;2.08;;;;;;;;;;4954131;28;20047;-90
2022/07/25 08:06:34;;;;;;;5.55;2.92;;;;;;;;;;4945712;29;20086;-90
2022/07/25 08:09:03;;;;;;;4.63;2.88;;;;;;;;;;4947070;28;20098;-89
2022/07/25 08:11:32;;;;;;;2.85;1.98;;;;;;;;;;4957197;28;20058;-94
2022/07/25 08:14:01;;;;;;;5.93;2.75;;;;;;;;;;4944938;29;20048;-95
2022/07/25 08:16:30;;;;;;;3.25;2.55;;;;;;;;;;4942666;29;20062;-95
2022/07/25 08:19:15;;;;;;;3.50;2.22;;;;;;;;;;4951665;29;20044;-93
2022/07/25 08:21:44;;;;;;;6.22;2.80;;;;;;;;;;4951836;29;20087;-90
2022/07/25 08:24:14;;;;;;;4.43;2.38;;;;;;;;;;4948050;28;20411;-92
2022/07/25 08:26:43;;;;;;;4.07;2.53;;;;;;;;;;4956273;28;20491;-90
2022/07/25 08:29:12;;;;;;;3.03;2.38;;;;;;;;;;4944700;29;20413;-91
2022/07/25 08:31:55;;;;;;;5.85;2.95;;;;;;;;;;4943087;29;20143;-90
2022/07/25 08:34:26;;;;;;;11.65;2.58;;;;;;;;;;4939931;29;20208;-90
2022/07/25 08:36:55;;;;;;;7.07;2.80;;;;;;;;;;4947262;29;20051;-91
2022/07/25 08:39:23;;;;;;;3.22;2.30;;;;;;;;;;4946901;28;20091;-91
2022/07/25 08:41:52;;;;;;;3.47;2.20;;;;;;;;;;4954282;28;20484;-90
2022/07/25 08:44:21;;;;;;;8.65;2.60;;;;;;;;;;4953200;29;20122;-89
2022/07/25 08:46:50;;;;;;;4.35;2.78;;;;;;;;;;4949883;29;20058;-91
2022/07/25 08:49:22;;;;;;;3.92;2.25;;;;;;;;;;4947091;29;20052;-91
2022/07/25 08:51:52;;;;;;;4.13;2.35;;;;;;;;;;4953905;29;20048;-91
2022/07/25 08:54:21;;;;;;;4.07;2.47;;;;;;;;;;4945030;28;20075;-91
2022/07/25 08:56:50;;;;;;;3.45;2.50;;;;;;;;;;4951384;29;20106;-91
2022/07/25 08:59:19;;;;;;;4.10;2.80;;;;;;;;;;4949314;28;20059;-91
2022/07/25 09:01:48;;;;;;;3.65;2.22;;;;;;;;;;4950656;28;20467;-91
2022/07/25 09:04:17;;;;;;;6.57;2.40;;;;;;;;;;4948191;29;20492;-91
2022/07/25 09:06:50;;;;;;;3.03;2.10;;;;;;;;;;4951075;28;20074;-91
2022/07/25 09:09:30;;;;;;;4.80;2.65;;;;;;;;;;4947085;28;20523;-91
2022/07/25 09:11:59;;;;;;;4.65;2.90;;;;;;;;;;4953311;29;20087;-91
2022/07/25 09:14:30;;;;;;;4.90;2.60;;;;;;;;;;4952188;29;20047;-92
2022/07/25 09:17:06;;;;;;;6.32;2.25;;;;;;;;;;4945997;28;20098;-90
2022/07/25 09:19:54;;;;;;;3.92;2.50;;;;;;;;;;4942711;28;20047;-89
2022/07/25 09:22:24;;;;;;;3.88;2.38;;;;;;;;;;4947745;29;20057;-90
2022/07/25 09:24:55;;;;;;;6.72;2.40;;;;;;;;;;4946942;28;20059;-90
2022/07/25 09:27:26;;;;;;;7.18;2.50;;;;;;;;;;4949220;28;20055;-89
2022/07/25 09:29:55;;;;;;;4.70;2.60;;;;;;;;;;4951645;29;20047;-90
2022/07/25 09:32:24;;;;;;;4.78;2.78;;;;;;;;;;4947988;29;20047;-91
2022/07/25 09:34:53;;;;;;;4.70;2.38;;;;;;;;;;4950296;29;20122;-91
2022/07/25 09:37:26;;;;;;;4.10;2.55;;;;;;;;;;4949713;29;20135;-92
2022/07/25 09:39:56;;;;;;;3.80;2.03;;;;;;;;;;4947885;28;20051;-91
2022/07/25 09:42:31;;;;;;;6.75;2.53;;;;;;;;;;4945680;28;20047;-91
2022/07/25 09:45:05;;;;;;;4.75;2.90;;;;;;;;;;4953589;29;20428;-91
2022/07/25 09:47:35;;;;;;;3.65;2.20;;;;;;;;;;4943157;29;20048;-91
2022/07/25 09:50:04;;;;;;;3.30;2.00;;;;;;;;;;4954379;29;20075;-90
2022/07/25 09:52:33;;;;;;;3.92;2.20;;;;;;;;;;4950601;28;20134;-89
2022/07/25 09:55:05;;;;;;;3.90;2.53;;;;;;;;;;4949703;29;20046;-90
2022/07/25 09:57:33;;;;;;;4.00;2.17;;;;;;;;;;4946473;28;20055;-89
2022/07/25 10:00:04;;;;;;;3.70;1.95;;;;;;;;;;4947820;29;20050;-91
2022/07/25 10:02:37;;;;;;;4.35;2.38;;;;;;;;;;4943235;28;20062;-91
2022/07/25 10:05:11;;;;;;;3.53;2.58;;;;;;;;;;4950013;28;20436;-92
2022/07/25 10:07:40;;;;;;;4.28;2.10;;;;;;;;;;4947081;28;20051;-92
2022/07/25 10:10:20;;;;;;;3.65;1.75;;;;;;;;;;4947165;29;20471;-91
2022/07/25 10:12:59;;;;;;;3.13;1.88;;;;;;;;;;4950700;28;20065;-90
2022/07/25 10:15:28;;;;;;;2.95;2.03;;;;;;;;;;4948941;29;20054;-93
2022/07/25 10:18:03;;;;;;;2.60;1.77;;;;;;;;;;4952547;29;20102;-92
2022/07/25 10:20:32;;;;;;;4.10;1.85;;;;;;;;;;4945883;28;20049;-92
2022/07/25 10:23:02;;;;;;;3.08;1.80;;;;;;;;;;4952263;29;20057;-92
2022/07/25 10:25:32;;;;;;;5.88;2.55;;;;;;;;;;4941789;29;20059;-91
2022/07/25 10:28:08;;;;;;;3.17;2.47;;;;;;;;;;4953115;28;20050;-92
2022/07/25 10:30:39;;;;;;;2.80;1.90;;;;;;;;;;4951848;29;20047;-92
2022/07/25 10:33:12;;;;;;;6.18;2.63;;;;;;;;;;4953861;29;20074;-89
2022/07/25 10:35:43;;;;;;;3.35;2.10;;;;;;;;;;4944567;29;20051;-92
2022/07/25 10:38:12;;;;;;;3.38;2.10;;;;;;;;;;4939827;29;20499;-90
2022/07/25 10:40:43;;;;;;;8.35;2.40;;;;;;;;;;4953855;28;20054;-88
2022/07/25 10:43:13;;;;;;;4.13;2.13;;;;;;;;;;4949045;29;20051;-88
2022/07/25 10:45:43;;;;;;;3.65;2.33;;;;;;;;;;4950804;28;20086;-89
2022/07/25 10:48:13;;;;;;;5.25;2.33;;;;;;;;;;4947576;28;20068;-90
2022/07/25 10:50:48;;;;;;;4.43;2.10;;;;;;;;;;4943391;29;20069;-91
2022/07/25 10:53:28;;;;;;;4.25;2.38;;;;;;;;;;4942095;28;20096;-91
2022/07/25 10:55:59;;;;;;;4.30;2.20;;;;;;;;;;4949184;28;20094;-92
2022/07/25 10:58:47;;;;;;;2.83;1.67;;;;;;;;;;4959864;28;20047;-91
2022/07/25 11:01:23;;;;;;;3.40;2.42;;;;;;;;;;4949883;28;20504;-93
2022/07/25 11:03:52;;;;;;;3.03;1.85;;;;;;;;;;4951240;29;20066;-94
2022/07/25 11:06:32;;;;;;;2.40;1.33;;;;;;;;;;4953749;29;20134;-92
2022/07/25 11:09:02;;;;;;;4.05;2.50;;;;;;;;;;4950243;28;20074;-92
2022/07/25 11:11:38;;;;;;;3.25;1.65;;;;;;;;;;4954386;28;20059;-92
2022/07/25 11:14:15;;;;;;;2.75;1.83;;;;;;;;;;4942134;28;20087;-92
2022/07/25 11:16:43;;;;;;;3.15;2.10;;;;;;;;;;4942569;28;20040;-93
2022/07/25 11:19:19;;;;;;;2.63;1.77;;;;;;;;;;4954968;28;20066;-92
2022/07/25 11:21:48;;;;;;;4.32;2.05;;;;;;;;;;4951049;29;20636;-91
2022/07/25 11:24:17;;;;;;;4.05;2.28;;;;;;;;;;4952085;28;20125;-91
2022/07/25 11:26:48;;;;;;;3.28;1.80;;;;;;;;;;4951277;28;20133;-90
2022/07/25 11:29:20;;;;;;;3.65;1.80;;;;;;;;;;4951085;28;20058;-90
2022/07/25 11:31:52;;;;;;;1.90;1.58;;;;;;;;;;4952953;28;20118;-90
2022/07/25 11:34:23;;;;;;;2.38;2.00;;;;;;;;;;4948356;29;20051;-89
2022/07/25 11:36:54;;;;;;;2.00;1.20;;;;;;;;;;4951262;28;20114;-91
2022/07/25 11:39:23;;;;;;;2.63;1.95;;;;;;;;;;4947807;28;20457;-91
2022/07/25 11:42:00;;;;;;;3.38;2.00;;;;;;;;;;4952453;29;20106;-90
2022/07/25 11:44:32;;;;;;;2.70;1.50;;;;;;;;;;4946830;28;20051;-91
2022/07/25 11:47:01;;;;;;;3.92;2.00;;;;;;;;;;4953510;28;20459;-92
2022/07/25 11:49:30;;;;;;;2.70;1.70;;;;;;;;;;4958981;28;20415;-91
2022/07/25 11:51:59;;;;;;;2.53;1.63;;;;;;;;;;4947039;28;20047;-92
2022/07/25 11:54:27;;;;;;;1.50;1.35;;;;;;;;;;4947284;28;20048;-93
2022/07/25 11:56:56;;;;;;;2.17;1.75;;;;;;;;;;4950138;28;20508;-92
2022/07/25 11:59:28;;;;;;;3.72;1.30;;;;;;;;;;4951055;28;20578;-92
2022/07/25 12:01:57;;;;;;;2.13;1.45;;;;;;;;;;4957234;28;20509;-91
2022/07/25 12:04:27;;;;;;;2.05;1.55;;;;;;;;;;4953119;28;20101;-93
2022/07/25 12:07:04;;;;;;;2.85;1.52;;;;;;;;;;4949872;28;20052;-93
2022/07/25 12:09:33;;;;;;;2.05;1.27;;;;;;;;;;4952265;28;20062;-91
2022/07/25 12:12:03;;;;;;;1.67;1.20;;;;;;;;;;4956517;28;20138;-91
2022/07/25 12:14:42;;;;;;;2.00;1.35;;;;;;;;;;4955377;28;20487;-91
2022/07/25 12:17:11;;;;;;;2.90;1.70;;;;;;;;;;4945617;28;21592;-91
2022/07/25 12:19:41;;;;;;;1.73;1.20;;;;;;;;;;4956311;28;20575;-91
2022/07/25 12:22:09;;;;;;;2.47;1.70;;;;;;;;;;4956642;28;20479;-90
2022/07/25 12:24:40;;;;;;;3.88;1.35;;;;;;;;;;4952109;28;20518;-91
2022/07/25 12:27:09;;;;;;;2.80;1.55;;;;;;;;;;4945982;28;20519;-90
2022/07/25 12:29:39;;;;;;;1.63;1.25;;;;;;;;;;4950717;28;20503;-92
2022/07/25 12:32:08;;;;;;;3.13;1.70;;;;;;;;;;4960328;28;20055;-92
2022/07/25 12:34:36;;;;;;;1.65;1.35;;;;;;;;;;4948600;28;20506;-92
2022/07/25 12:37:05;;;;;;;1.90;1.38;;;;;;;;;;4947304;28;20420;-93
2022/07/25 12:39:34;;;;;;;3.00;1.63;;;;;;;;;;4924549;28;20514;-93
2022/07/25 12:42:02;;;;;;;4.63;1.63;;;;;;;;;;4947070;28;20106;-92
2022/07/25 12:44:33;;;;;;;1.88;1.50;;;;;;;;;;4952159;29;20052;-93
2022/07/25 12:47:02;;;;;;;1.95;1.48;;;;;;;;;;4953062;29;20446;-92
2022/07/25 12:49:31;;;;;;;3.42;1.73;;;;;;;;;;4947333;28;20086;-92
2022/07/25 12:52:00;;;;;;;2.03;1.35;;;;;;;;;;4942728;28;20044;-93
2022/07/25 12:54:29;;;;;;;2.28;1.67;;;;;;;;;;4940117;28;20055;-93
2022/07/25 12:56:58;;;;;;;4.18;2.08;;;;;;;;;;4948658;28;20578;-92
2022/07/25 12:59:27;;;;;;;3.03;2.22;;;;;;;;;;4948109;28;20134;-91
2022/07/25 13:01:56;;;;;;;1.88;1.42;;;;;;;;;;4943593;28;20069;-93
2022/07/25 13:04:26;;;;;;;2.13;1.55;;;;;;;;;;4938102;28;20146;-92
2022/07/25 13:06:57;;;;;;;5.22;1.83;;;;;;;;;;4949943;28;20086;-91
2022/07/25 13:09:26;;;;;;;3.58;2.08;;;;;;;;;;4953326;28;20094;-91
2022/07/25 13:11:55;;;;;;;3.13;1.80;;;;;;;;;;4954822;28;20073;-91
2022/07/25 13:14:24;;;;;;;3.83;1.65;;;;;;;;;;4942045;28;20509;-91
2022/07/25 13:16:52;;;;;;;2.45;1.73;;;;;;;;;;4951817;28;20052;-91
2022/07/25 13:19:21;;;;;;;3.92;1.50;;;;;;;;;;4949469;29;20055;-93
2022/07/25 13:21:51;;;;;;;3.72;1.73;;;;;;;;;;4947785;28;20074;-92
2022/07/25 13:24:19;;;;;;;1.90;1.50;;;;;;;;;;4956693;28;20067;-92
2022/07/25 13:26:48;;;;;;;3.63;1.98;;;;;;;;;;4947767;29;20048;-91
2022/07/25 13:29:17;;;;;;;3.15;1.67;;;;;;;;;;4924528;28;20097;-92
2022/07/25 13:31:47;;;;;;;3.63;2.00;;;;;;;;;;4946410;28;20051;-90
2022/07/25 13:34:16;;;;;;;3.75;1.63;;;;;;;;;;4941161;28;20259;-91
2022/07/25 13:36:47;;;;;;;4.07;1.67;;;;;;;;;;4945127;28;20058;-91
2022/07/25 13:39:20;;;;;;;2.50;1.95;;;;;;;;;;4951537;29;20047;-91
2022/07/25 13:41:49;;;;;;;2.50;1.85;;;;;;;;;;4947636;28;20048;-92
2022/07/25 13:44:18;;;;;;;1.20;1.10;;;;;;;;;;4944516;28;20508;-91
2022/07/25 13:46:48;;;;;;;2.45;1.58;;;;;;;;;;4951720;28;20118;-90
2022/07/25 13:49:18;;;;;;;4.30;1.77;;;;;;;;;;4954990;29;20065;-91
2022/07/25 13:51:48;;;;;;;4.35;1.85;;;;;;;;;;4946132;28;20043;-91
2022/07/25 13:54:21;;;;;;;2.75;1.55;;;;;;;;;;4944733;28;20051;-91
2022/07/25 13:56:50;;;;;;;2.95;1.88;;;;;;;;;;4948637;28;20083;-91
2022/07/25 13:59:20;;;;;;;3.80;1.85;;;;;;;;;;4948954;28;20450;-91
2022/07/25 14:01:49;;;;;;;3.08;1.77;;;;;;;;;;4947869;28;20318;-92
2022/07/25 14:04:18;;;;;;;2.58;1.70;;;;;;;;;;4943987;28;20162;-91
2022/07/25 14:06:50;;;;;;;4.13;1.83;;;;;;;;;;4956882;28;20051;-91
2022/07/25 14:09:22;;;;;;;3.08;1.63;;;;;;;;;;4947390;28;20062;-92
2022/07/25 14:11:56;;;;;;;4.38;1.65;;;;;;;;;;4949516;28;20137;-92
2022/07/25 14:14:26;;;;;;;3.33;2.03;;;;;;;;;;4949730;28;20408;-91
2022/07/25 14:16:58;;;;;;;5.93;1.60;;;;;;;;;;4950746;28;20350;-90
2022/07/25 14:19:30;;;;;;;4.07;1.67;;;;;;;;;;4941884;28;20142;-91
2022/07/25 14:21:59;;;;;;;1.80;1.27;;;;;;;;;;4950831;28;20439;-90
2022/07/25 14:24:29;;;;;;;2.70;1.40;;;;;;;;;;4961132;28;20047;-91
2022/07/25 14:27:01;;;;;;;2.28;1.40;;;;;;;;;;4950679;28;20570;-92
2022/07/25 14:29:30;;;;;;;1.40;0.85;;;;;;;;;;4947362;28;20554;-91
2022/07/25 14:32:02;;;;;;;1.77;1.38;;;;;;;;;;4949400;28;20493;-93
2022/07/25 14:34:31;;;;;;;4.22;1.30;;;;;;;;;;4952212;28;20055;-92
2022/07/25 14:37:00;;;;;;;1.85;1.30;;;;;;;;;;4952134;28;20043;-91
2022/07/25 14:39:32;;;;;;;1.58;1.40;;;;;;;;;;4944286;28;20046;-92
2022/07/25 14:42:01;;;;;;;3.00;1.42;;;;;;;;;;4945726;28;20550;-92
2022/07/25 14:44:30;;;;;;;2.08;1.52;;;;;;;;;;4950689;28;20062;-92
2022/07/25 14:46:58;;;;;;;2.97;1.50;;;;;;;;;;4957446;29;20518;-92
2022/07/25 14:49:27;;;;;;;2.88;1.63;;;;;;;;;;4936738;28;20095;-92
2022/07/25 14:52:00;;;;;;;1.15;0.82;;;;;;;;;;4939597;29;20053;-91
2022/07/25 14:54:31;;;;;;;3.00;1.40;;;;;;;;;;4950234;28;20062;-90
2022/07/25 14:57:00;;;;;;;2.88;1.30;;;;;;;;;;4954097;28;20482;-91
2022/07/25 14:59:32;;;;;;;1.92;1.30;;;;;;;;;;4956385;28;20046;-91
2022/07/25 15:02:02;;;;;;;2.13;1.50;;;;;;;;;;4962676;28;20054;-91
2022/07/25 15:04:31;;;;;;;1.70;1.10;;;;;;;;;;4959764;28;20047;-95
2022/07/25 15:07:00;;;;;;;2.05;1.23;;;;;;;;;;4948140;29;20108;-93